Time;durP1;ratioP1;P1;durP2;ratioP2;P2;SDS_P1;SDS_P2;PMS_P1;PMS_P2;Temp;Humidity;BMP_temperature;BMP_pressure;BME280_temperature;BME280_humidity;BME280_pressure;Samples;Min_cycle;Max_cycle;Signal;HPM_P1;HPM_P2
2022/06/20 00:01:04;;;;;;;9.57;2.00;;;13.30;99.90;;;;;;4982006;28;20041;-78
2022/06/20 00:03:37;;;;;;;11.10;2.00;;;13.30;99.90;;;;;;4995203;28;20046;-78
2022/06/20 00:06:03;;;;;;;6.72;1.52;;;13.20;99.90;;;;;;5010930;28;20037;-78
2022/06/20 00:08:29;;;;;;;11.25;2.05;;;13.20;99.90;;;;;;5011208;28;20054;-78
2022/06/20 00:10:55;;;;;;;7.97;1.90;;;13.20;99.90;;;;;;5011525;28;20120;-78
2022/06/20 00:13:28;;;;;;;9.25;1.90;;;13.10;99.90;;;;;;4994040;28;20060;-78
2022/06/20 00:16:00;;;;;;;7.30;1.90;;;13.10;99.90;;;;;;4992123;28;20101;-78
2022/06/20 00:18:26;;;;;;;;;;;13.10;99.90;;;;;;4990967;28;20058;-78
2022/06/20 00:20:52;;;;;;;8.65;1.95;;;13.10;99.90;;;;;;5011416;28;20360;-78
2022/06/20 00:23:18;;;;;;;8.93;1.85;;;13.10;99.90;;;;;;4987055;28;20073;-78
2022/06/20 00:25:44;;;;;;;6.95;1.90;;;13.10;99.90;;;;;;5005136;28;20045;-78
2022/06/20 00:28:12;;;;;;;7.40;1.90;;;13.10;99.90;;;;;;4980817;28;20079;-78
2022/06/20 00:30:38;;;;;;;8.52;1.83;;;13.10;99.90;;;;;;5011559;28;20053;-78
2022/06/20 00:33:05;;;;;;;8.32;1.60;;;13.10;99.90;;;;;;5010689;28;20095;-78
2022/06/20 00:35:33;;;;;;;6.03;1.60;;;13.00;99.90;;;;;;5001568;28;20042;-78
2022/06/20 00:38:02;;;;;;;7.25;1.75;;;13.10;99.90;;;;;;4993530;28;20097;-78
2022/06/20 00:40:43;;;;;;;7.97;1.73;;;13.10;99.90;;;;;;4995526;28;20046;-78
2022/06/20 00:43:33;;;;;;;7.30;1.90;;;13.10;99.90;;;;;;5015240;28;20042;-77
2022/06/20 00:46:04;;;;;;;7.40;1.95;;;13.10;99.90;;;;;;5015588;28;20049;-77
2022/06/20 00:48:37;;;;;;;10.30;1.92;;;13.10;99.90;;;;;;5010325;28;20068;-77
2022/06/20 00:51:15;;;;;;;7.43;1.80;;;13.10;99.90;;;;;;4998850;28;20129;-77
2022/06/20 00:53:47;;;;;;;6.00;1.70;;;13.10;99.90;;;;;;5014894;28;20042;-78
2022/06/20 00:56:25;;;;;;;5.22;1.48;;;13.00;99.90;;;;;;5012916;28;20601;-77
2022/06/20 00:59:01;;;;;;;6.88;1.77;;;13.00;99.90;;;;;;4996754;28;20038;-77
2022/06/20 01:01:38;;;;;;;7.18;1.80;;;13.00;99.90;;;;;;4992796;28;20113;-78
2022/06/20 01:04:12;;;;;;;8.55;1.85;;;13.00;99.90;;;;;;5019344;28;20172;-78
2022/06/20 01:06:45;;;;;;;8.32;1.90;;;13.00;99.90;;;;;;4995782;28;20042;-77
2022/06/20 01:09:13;;;;;;;7.43;1.70;;;13.00;99.90;;;;;;4984586;28;20489;-77
2022/06/20 01:11:52;;;;;;;9.88;2.10;;;13.00;99.90;;;;;;5013567;28;20037;-77
2022/06/20 01:14:38;;;;;;;8.88;2.10;;;13.00;99.90;;;;;;4996379;28;20485;-77
2022/06/20 01:17:32;;;;;;;8.15;2.15;;;13.00;99.90;;;;;;5011018;28;20073;-78
2022/06/20 01:20:18;;;;;;;9.60;2.40;;;13.00;99.90;;;;;;4996256;28;20054;-78
2022/06/20 01:23:22;;;;;;;9.70;2.42;;;13.00;99.90;;;;;;5013409;28;20581;-77
2022/06/20 01:25:54;;;;;;;8.60;1.95;;;12.90;99.90;;;;;;5014944;28;20053;-78
2022/06/20 01:28:26;;;;;;;9.35;2.15;;;13.00;99.90;;;;;;5014700;28;20058;-77
2022/06/20 01:30:52;;;;;;;9.10;2.15;;;13.00;99.90;;;;;;5013086;28;20397;-77
2022/06/20 01:33:20;;;;;;;7.18;1.92;;;13.00;99.90;;;;;;4995429;28;20121;-78
2022/06/20 01:38:32;;;;;;;6.80;1.70;;;13.00;99.90;;;;;;5017289;28;20050;-77
2022/06/20 01:43:47;;;;;;;6.35;1.85;;;13.00;99.90;;;;;;5015032;28;20050;-77
2022/06/20 01:46:14;;;;;;;10.73;2.63;;;13.00;99.90;;;;;;5014718;28;20041;-77
2022/06/20 01:48:51;;;;;;;9.88;2.33;;;13.00;99.90;;;;;;5008494;28;20050;-78
2022/06/20 01:51:24;;;;;;;8.93;2.10;;;13.00;99.90;;;;;;4990235;28;20121;-78
2022/06/20 01:53:51;;;;;;;8.15;2.08;;;13.00;99.90;;;;;;4999985;28;20099;-78
2022/06/20 01:56:19;;;;;;;9.10;2.45;;;13.00;99.90;;;;;;5013846;28;20046;-78
2022/06/20 01:58:51;;;;;;;8.23;2.00;;;13.00;99.90;;;;;;5013620;28;20037;-78
2022/06/20 02:01:17;;;;;;;8.20;2.10;;;13.00;99.90;;;;;;5013985;28;20501;-78
2022/06/20 02:03:45;;;;;;;8.95;2.40;;;13.00;99.90;;;;;;4980703;28;20077;-78
2022/06/20 02:06:15;;;;;;;9.57;2.60;;;13.00;99.90;;;;;;5013676;28;20135;-78
2022/06/20 02:08:43;;;;;;;9.90;2.20;;;13.00;99.90;;;;;;5013019;28;20390;-78
2022/06/20 02:11:26;;;;;;;10.25;2.20;;;13.00;99.90;;;;;;4997435;28;20049;-78
2022/06/20 02:13:58;;;;;;;10.85;2.30;;;12.90;99.90;;;;;;4997154;28;20389;-78
2022/06/20 02:16:27;;;;;;;6.93;2.00;;;12.90;99.90;;;;;;5013757;28;20505;-78
2022/06/20 02:18:58;;;;;;;7.80;2.00;;;13.00;99.90;;;;;;4983277;28;20046;-78
2022/06/20 02:21:28;;;;;;;7.40;2.22;;;13.00;99.90;;;;;;5013154;28;20053;-78
2022/06/20 02:24:02;;;;;;;10.55;2.40;;;12.90;99.90;;;;;;4998806;28;20050;-78
2022/06/20 02:26:30;;;;;;;8.38;1.95;;;12.90;99.90;;;;;;4989387;28;20038;-78
2022/06/20 02:29:26;;;;;;;9.63;2.35;;;12.90;99.90;;;;;;4998595;28;20049;-78
2022/06/20 02:32:03;;;;;;;8.25;2.22;;;13.00;99.90;;;;;;5001780;28;20120;-78
2022/06/20 02:34:30;;;;;;;10.68;2.58;;;12.90;99.90;;;;;;4997608;28;20038;-78
2022/06/20 02:37:01;;;;;;;9.23;2.15;;;12.90;99.90;;;;;;5012599;28;20497;-78
2022/06/20 02:39:28;;;;;;;10.23;2.40;;;12.90;99.90;;;;;;5013200;28;20129;-78
2022/06/20 02:41:59;;;;;;;9.90;2.50;;;12.90;99.90;;;;;;5013068;28;20046;-78
2022/06/20 02:44:26;;;;;;;8.13;2.10;;;12.90;99.90;;;;;;4999315;28;20468;-78
2022/06/20 02:46:53;;;;;;;8.73;2.10;;;12.80;99.90;;;;;;5003863;28;20104;-78
2022/06/20 02:49:26;;;;;;;6.13;1.80;;;12.80;99.90;;;;;;5004860;28;20387;-78
2022/06/20 02:51:54;;;;;;;8.35;1.90;;;12.70;99.90;;;;;;5012467;28;20448;-78
2022/06/20 02:54:27;;;;;;;8.02;2.40;;;12.70;99.90;;;;;;5009944;28;20390;-78
2022/06/20 02:56:59;;;;;;;7.57;2.33;;;12.60;99.90;;;;;;5003113;28;20409;-78
2022/06/20 02:59:36;;;;;;;8.18;2.20;;;12.60;99.90;;;;;;5012692;28;20053;-78
2022/06/20 03:02:08;;;;;;;6.80;1.80;;;12.50;99.90;;;;;;5012753;28;20427;-78
2022/06/20 03:04:37;;;;;;;8.38;1.90;;;12.50;99.90;;;;;;4998300;28;20046;-78
2022/06/20 03:07:09;;;;;;;6.68;1.80;;;12.50;99.90;;;;;;5010923;28;20382;-78
2022/06/20 03:09:38;;;;;;;8.50;2.30;;;12.50;99.90;;;;;;4998337;28;20126;-78
2022/06/20 03:12:06;;;;;;;6.18;1.90;;;12.50;99.90;;;;;;5012694;28;20401;-78
2022/06/20 03:14:40;;;;;;;6.30;1.73;;;12.40;99.90;;;;;;5011859;28;20049;-78
2022/06/20 03:17:07;;;;;;;6.47;1.77;;;12.50;99.90;;;;;;5012558;28;20030;-78
2022/06/20 03:19:37;;;;;;;6.82;2.00;;;12.40;99.90;;;;;;5012233;28;20161;-78
2022/06/20 03:22:07;;;;;;;5.72;1.80;;;12.40;99.90;;;;;;4998256;28;20053;-78
2022/06/20 03:24:35;;;;;;;6.65;2.10;;;12.40;99.90;;;;;;4998686;28;20045;-78
2022/06/20 03:27:04;;;;;;;6.70;2.00;;;12.50;99.90;;;;;;5011985;28;20044;-78
2022/06/20 03:29:30;;;;;;;6.90;2.00;;;12.50;99.90;;;;;;4981833;28;20050;-78
2022/06/20 03:31:56;;;;;;;7.63;1.83;;;12.40;99.90;;;;;;5012371;28;20038;-78
2022/06/20 03:34:22;;;;;;;5.97;1.92;;;12.40;99.90;;;;;;5011818;28;20148;-78
2022/06/20 03:36:49;;;;;;;5.22;1.70;;;12.40;99.90;;;;;;4994581;28;20578;-78
2022/06/20 03:39:18;;;;;;;6.65;2.00;;;12.40;99.90;;;;;;5015570;28;20045;-78
2022/06/20 03:41:44;;;;;;;7.85;2.38;;;12.30;99.90;;;;;;5012262;28;20092;-78
2022/06/20 03:44:28;;;;;;;6.80;1.88;;;12.20;99.90;;;;;;5005664;28;20042;-78
2022/06/20 03:47:12;;;;;;;7.03;2.00;;;12.20;99.90;;;;;;4986804;28;20077;-78
2022/06/20 03:49:48;;;;;;;9.10;2.50;;;12.30;99.90;;;;;;5012214;28;20500;-78
2022/06/20 03:52:26;;;;;;;7.85;2.50;;;12.20;99.90;;;;;;5010916;28;20145;-78
2022/06/20 03:55:06;;;;;;;6.97;2.17;;;12.10;99.90;;;;;;5012016;28;20485;-78
2022/06/20 03:57:39;;;;;;;8.95;2.45;;;12.10;99.90;;;;;;4995095;28;20488;-78
2022/06/20 04:00:14;;;;;;;6.40;1.90;;;12.10;99.90;;;;;;4995528;28;20103;-78
2022/06/20 04:03:01;;;;;;;5.30;1.80;;;12.00;99.90;;;;;;5009085;28;20124;-78
2022/06/20 04:05:33;;;;;;;6.95;2.25;;;12.00;99.90;;;;;;5011364;28;20037;-78
2022/06/20 04:08:14;;;;;;;6.53;1.88;;;12.00;99.90;;;;;;5005341;28;20038;-78
2022/06/20 04:11:03;;;;;;;8.77;2.93;;;12.00;99.90;;;;;;4989666;28;20493;-78
2022/06/20 04:14:04;;;;;;;8.32;2.80;;;12.00;99.90;;;;;;5008237;28;20069;-78
2022/06/20 04:16:52;;;;;;;9.65;3.03;;;12.00;99.90;;;;;;5008103;28;20552;-78
2022/06/20 04:19:23;;;;;;;8.75;3.13;;;11.90;99.90;;;;;;5010891;28;20062;-78
2022/06/20 04:22:15;;;;;;;8.50;2.45;;;12.00;99.90;;;;;;5027750;28;20477;-78
2022/06/20 04:24:57;;;;;;;11.17;3.20;;;12.00;99.90;;;;;;4991974;28;20061;-78
2022/06/20 04:27:25;;;;;;;;;;;12.00;99.90;;;;;;4998387;28;20046;-78
2022/06/20 04:30:01;;;;;;;9.38;2.95;;;12.00;99.90;;;;;;4998259;28;19925;-78
2022/06/20 04:32:58;;;;;;;8.30;2.88;;;11.90;99.90;;;;;;4999055;28;20561;-78
2022/06/20 04:35:35;;;;;;;7.22;2.20;;;12.00;99.90;;;;;;4997649;28;20146;-78
2022/06/20 04:38:05;;;;;;;10.88;3.05;;;12.00;99.90;;;;;;4998906;28;20572;-78
2022/06/20 04:40:37;;;;;;;9.85;2.75;;;12.10;99.90;;;;;;5011830;28;20044;-78
2022/06/20 04:43:07;;;;;;;8.15;2.70;;;12.00;99.90;;;;;;5014901;28;20455;-78
2022/06/20 04:45:39;;;;;;;9.20;3.28;;;12.10;99.90;;;;;;5012053;28;20040;-78
2022/06/20 04:48:13;;;;;;;8.32;3.03;;;12.20;99.90;;;;;;5012210;28;20037;-78
2022/06/20 04:50:44;;;;;;;8.48;2.80;;;12.30;99.90;;;;;;5019919;28;20033;-78
2022/06/20 04:53:13;;;;;;;8.60;2.90;;;12.40;99.90;;;;;;4994979;28;20073;-78
2022/06/20 04:55:44;;;;;;;9.32;3.25;;;12.60;99.90;;;;;;5008311;28;20037;-78
2022/06/20 04:58:17;;;;;;;8.50;2.90;;;13.10;99.90;;;;;;5003445;28;20055;-78
2022/06/20 05:00:45;;;;;;;8.43;2.33;;;13.50;99.90;;;;;;5000324;28;20038;-78
2022/06/20 05:03:18;;;;;;;8.68;2.70;;;14.70;99.90;;;;;;5000992;28;20555;-78
2022/06/20 05:05:47;;;;;;;7.53;2.40;;;15.50;99.90;;;;;;5006189;28;20501;-78
2022/06/20 05:08:20;;;;;;;7.72;2.17;;;16.10;99.90;;;;;;5017840;28;20038;-78
2022/06/20 05:10:51;;;;;;;8.35;2.50;;;16.40;99.90;;;;;;5014292;28;20561;-78
2022/06/20 05:13:21;;;;;;;9.50;2.20;;;16.40;99.90;;;;;;5018177;28;20493;-78
2022/06/20 05:15:49;;;;;;;9.63;2.50;;;16.80;99.90;;;;;;5002293;28;20034;-78
2022/06/20 05:18:41;;;;;;;8.27;2.10;;;17.40;99.90;;;;;;4994872;28;20049;-78
2022/06/20 05:21:19;;;;;;;;;;;18.00;99.90;;;;;;5010612;28;20049;-78
2022/06/20 05:23:52;;;;;;;8.90;2.30;;;18.90;99.90;;;;;;4997976;28;19921;-78
2022/06/20 05:26:25;;;;;;;7.55;1.90;;;18.90;99.90;;;;;;4998157;28;20103;-78
2022/06/20 05:28:52;;;;;;;7.20;2.00;;;19.50;99.90;;;;;;5017585;28;20494;-78
2022/06/20 05:31:29;;;;;;;8.13;2.20;;;20.10;99.90;;;;;;5014597;28;20116;-78
2022/06/20 05:34:13;;;;;;;7.78;2.30;;;20.50;97.90;;;;;;5000886;28;20034;-78
2022/06/20 05:36:52;;;;;;;9.07;2.33;;;21.10;96.30;;;;;;5004321;28;20516;-78
2022/06/20 05:39:25;;;;;;;8.40;2.20;;;21.50;91.30;;;;;;5005334;28;20492;-78
2022/06/20 05:41:50;;;;;;;9.93;2.40;;;21.20;91.40;;;;;;5000594;28;20038;-79
2022/06/20 05:44:16;;;;;;;9.10;2.03;;;21.80;89.60;;;;;;5002267;28;20041;-78
2022/06/20 05:46:50;;;;;;;8.15;2.00;;;21.80;91.40;;;;;;5001074;28;20554;-78
2022/06/20 05:49:25;;;;;;;8.38;2.30;;;22.30;88.40;;;;;;5002334;28;20045;-79
2022/06/20 05:51:52;;;;;;;7.70;2.25;;;22.60;85.90;;;;;;5004213;28;20069;-79
2022/06/20 05:54:23;;;;;;;6.55;2.00;;;22.60;84.20;;;;;;4980480;28;20022;-79
2022/06/20 05:56:55;;;;;;;7.47;2.30;;;23.00;83.60;;;;;;5016343;28;20121;-79
2022/06/20 05:59:41;;;;;;;8.82;2.15;;;22.70;78.70;;;;;;5012443;28;20076;-79
2022/06/20 06:02:42;;;;;;;7.97;2.13;;;22.70;76.70;;;;;;5020462;28;20446;-79
2022/06/20 06:05:08;;;;;;;8.55;2.10;;;22.20;78.80;;;;;;5019547;28;20553;-79
2022/06/20 06:07:45;;;;;;;8.43;2.28;;;22.20;81.90;;;;;;4989738;28;20180;-79
2022/06/20 06:10:36;;;;;;;8.70;2.40;;;22.40;75.10;;;;;;4993304;28;20504;-78
2022/06/20 06:13:30;;;;;;;7.20;2.00;;;21.70;78.80;;;;;;4999846;28;20033;-79
2022/06/20 06:19:31;;;;;;;7.30;2.22;;;21.70;80.20;;;;;;5029079;28;20127;-79
2022/06/20 06:22:05;;;;;;;7.40;2.35;;;22.00;82.20;;;;;;5009813;28;20076;-79
2022/06/20 06:24:34;;;;;;;9.80;2.60;;;22.40;77.80;;;;;;5025720;28;20050;-78
2022/06/20 06:27:01;;;;;;;8.05;2.25;;;21.60;76.50;;;;;;5030669;28;20136;-78
2022/06/20 06:30:01;;;;;;;7.47;2.25;;;21.60;78.30;;;;;;5014065;28;20053;-78
2022/06/20 06:32:38;;;;;;;8.07;2.22;;;21.30;76.90;;;;;;5029751;28;20049;-78
2022/06/20 06:35:23;;;;;;;8.88;2.50;;;21.70;78.50;;;;;;5030866;28;20048;-78
2022/06/20 06:38:06;;;;;;;9.50;2.53;;;21.40;78.30;;;;;;5042947;28;20488;-79
2022/06/20 06:40:47;;;;;;;9.43;2.70;;;21.30;77.50;;;;;;5027252;28;20488;-79
2022/06/20 06:43:38;;;;;;;8.75;2.63;;;21.40;77.90;;;;;;5025865;28;20044;-78
2022/06/20 06:46:09;;;;;;;7.68;2.35;;;22.00;76.20;;;;;;5009796;28;20063;-79
2022/06/20 06:48:53;;;;;;;9.15;2.70;;;21.90;73.90;;;;;;5028180;28;20084;-79
2022/06/20 06:51:49;;;;;;;9.00;2.60;;;22.10;75.80;;;;;;5012912;28;20080;-79
2022/06/20 06:54:21;;;;;;;10.77;2.83;;;22.60;73.10;;;;;;5044399;28;20131;-79
2022/06/20 06:56:57;;;;;;;10.55;2.60;;;22.80;70.60;;;;;;5031075;28;20039;-78
2022/06/20 06:59:31;;;;;;;8.45;2.63;;;21.90;72.00;;;;;;5027052;28;20043;-79
2022/06/20 07:02:00;;;;;;;9.80;3.00;;;22.00;74.20;;;;;;5025962;28;20049;-79
2022/06/20 07:04:44;;;;;;;11.15;3.10;;;21.30;74.60;;;;;;5029529;28;20539;-80
2022/06/20 07:07:32;;;;;;;8.55;3.00;;;20.90;75.00;;;;;;5014623;28;20037;-79
2022/06/20 07:09:58;;;;;;;10.75;2.80;;;21.10;77.00;;;;;;5022728;28;20041;-79
2022/06/20 07:12:31;;;;;;;8.27;2.75;;;21.50;76.30;;;;;;5006740;28;20041;-79
2022/06/20 07:15:11;;;;;;;9.70;3.30;;;21.90;76.90;;;;;;5043872;28;20059;-79
2022/06/20 07:18:05;;;;;;;9.80;2.90;;;21.80;73.00;;;;;;5013394;28;20668;-79
2022/06/20 07:20:38;;;;;;;9.88;3.38;;;21.30;71.30;;;;;;5013210;28;20476;-79
2022/06/20 07:23:09;;;;;;;11.38;3.20;;;20.70;74.10;;;;;;5026459;28;20048;-79
2022/06/20 07:25:41;;;;;;;8.73;3.00;;;20.60;77.50;;;;;;5025730;28;20057;-79
2022/06/20 07:28:26;;;;;;;10.60;3.20;;;20.20;79.20;;;;;;5029014;28;20049;-79
2022/06/20 07:31:00;;;;;;;9.60;2.80;;;19.80;80.10;;;;;;5031308;28;20057;-79
2022/06/20 07:33:38;;;;;;;11.00;3.20;;;19.50;83.70;;;;;;5025872;28;20519;-79
2022/06/20 07:36:08;;;;;;;9.32;2.88;;;19.60;90.00;;;;;;5024770;28;20480;-79
2022/06/20 07:38:47;;;;;;;9.80;2.65;;;19.80;81.80;;;;;;5011943;28;20037;-79
2022/06/20 07:41:42;;;;;;;10.65;2.90;;;19.90;82.90;;;;;;5031378;28;20477;-79
2022/06/20 07:44:23;;;;;;;10.63;2.85;;;20.00;79.90;;;;;;5040649;28;20040;-80
2022/06/20 07:46:57;;;;;;;9.73;2.67;;;20.40;79.20;;;;;;5031013;28;20040;-79
2022/06/20 07:49:41;;;;;;;8.73;2.80;;;20.50;78.80;;;;;;5028874;28;20110;-79
2022/06/20 07:52:12;;;;;;;8.02;2.38;;;20.50;76.50;;;;;;5010620;28;20049;-80
2022/06/20 07:54:46;;;;;;;9.93;2.53;;;20.80;76.80;;;;;;5027337;28;20522;-80
2022/06/20 07:57:19;;;;;;;10.10;2.85;;;21.20;74.00;;;;;;5025569;28;20046;-80
2022/06/20 07:59:51;;;;;;;8.68;2.60;;;21.40;70.60;;;;;;5030283;28;20045;-80
2022/06/20 08:02:31;;;;;;;8.35;2.53;;;21.50;70.10;;;;;;5006445;28;20395;-80
2022/06/20 08:04:59;;;;;;;6.90;2.40;;;21.70;71.00;;;;;;5012983;28;20434;-80
2022/06/20 08:07:35;;;;;;;7.32;2.25;;;21.70;68.10;;;;;;5008630;28;20083;-80
2022/06/20 08:10:10;;;;;;;8.73;2.75;;;21.80;68.90;;;;;;5043745;28;20522;-80
2022/06/20 08:12:54;;;;;;;7.07;2.30;;;21.50;67.90;;;;;;5029052;28;20037;-79
2022/06/20 08:15:36;;;;;;;8.40;2.65;;;21.30;69.10;;;;;;5012306;28;20041;-80
2022/06/20 08:18:02;;;;;;;9.68;2.70;;;20.80;70.10;;;;;;5024430;28;20073;-80
2022/06/20 08:20:33;;;;;;;9.00;2.72;;;20.30;72.20;;;;;;5022962;28;20094;-80
2022/06/20 08:23:10;;;;;;;8.35;3.03;;;19.90;73.80;;;;;;5026450;28;20049;-80
2022/06/20 08:25:47;;;;;;;10.27;2.75;;;19.80;78.50;;;;;;5029494;28;20452;-80
2022/06/20 08:28:23;;;;;;;11.30;2.63;;;19.90;77.50;;;;;;5027826;28;20083;-83
2022/06/20 08:30:56;;;;;;;9.55;2.80;;;19.70;78.00;;;;;;5021405;28;20049;-79
2022/06/20 08:33:26;;;;;;;9.90;2.70;;;19.60;79.80;;;;;;5029001;28;20045;-79
2022/06/20 08:36:03;;;;;;;10.65;2.90;;;19.50;82.00;;;;;;5024689;28;20158;-79
2022/06/20 08:38:32;;;;;;;11.82;2.90;;;19.20;80.50;;;;;;5030917;28;20126;-80
2022/06/20 08:41:25;;;;;;;8.10;2.50;;;19.10;82.00;;;;;;5028443;28;20045;-80
2022/06/20 08:44:08;;;;;;;8.02;2.78;;;19.20;82.00;;;;;;5032072;28;20071;-80
2022/06/20 08:46:37;;;;;;;10.38;2.97;;;19.20;81.40;;;;;;5040636;28;20503;-80
2022/06/20 08:49:40;;;;;;;8.20;2.60;;;19.10;80.20;;;;;;5013684;28;20476;-80
2022/06/20 08:52:19;;;;;;;10.35;2.60;;;19.40;83.80;;;;;;5027903;28;20087;-80
2022/06/20 08:55:21;;;;;;;7.00;2.60;;;20.10;82.50;;;;;;5026270;28;20053;-80
2022/06/20 08:58:42;;;;;;;9.10;2.70;;;20.20;78.70;;;;;;4990055;28;20041;-80
2022/06/20 09:01:40;;;;;;;10.57;2.50;;;20.20;76.50;;;;;;5008615;28;20045;-80
2022/06/20 09:04:44;;;;;;;8.43;2.70;;;20.40;80.50;;;;;;5031056;28;20120;-80
2022/06/20 09:08:06;;;;;;;7.95;2.55;;;20.30;74.70;;;;;;5013082;28;20033;-80
2022/06/20 09:11:00;;;;;;;9.60;2.58;;;20.00;74.90;;;;;;5009636;28;20566;-80
2022/06/20 09:13:47;;;;;;;8.60;2.35;;;19.60;79.20;;;;;;5008187;28;20520;-80
2022/06/20 09:16:28;;;;;;;8.27;2.70;;;19.80;81.90;;;;;;5030325;28;20049;-80
2022/06/20 09:19:08;;;;;;;8.55;2.75;;;20.60;84.10;;;;;;5024512;28;20484;-79
2022/06/20 09:21:41;;;;;;;10.38;2.60;;;20.50;76.60;;;;;;5026596;28;20515;-79
2022/06/20 09:24:42;;;;;;;10.38;2.30;;;20.40;78.30;;;;;;5033314;28;20559;-79
2022/06/20 09:27:21;;;;;;;7.25;2.00;;;20.40;78.20;;;;;;5032120;28;20041;-79
2022/06/20 09:30:04;;;;;;;7.57;2.05;;;20.20;74.20;;;;;;5011203;28;20503;-80
2022/06/20 09:32:59;;;;;;;7.95;1.85;;;20.50;73.60;;;;;;5026788;28;20048;-79
2022/06/20 09:35:52;;;;;;;7.32;1.90;;;20.90;71.90;;;;;;5023823;28;20492;-79
2022/06/20 09:38:43;;;;;;;6.53;1.95;;;21.30;72.60;;;;;;5032816;28;20083;-80
2022/06/20 09:41:17;;;;;;;8.27;2.10;;;21.80;72.60;;;;;;5035436;28;20088;-80
2022/06/20 09:44:08;;;;;;;7.25;1.63;;;22.00;70.40;;;;;;5044431;28;20388;-80
2022/06/20 09:46:58;;;;;;;7.75;1.70;;;22.20;67.40;;;;;;5026813;28;20048;-80
2022/06/20 09:49:56;;;;;;;5.65;1.50;;;22.50;64.20;;;;;;5046836;28;20487;-79
2022/06/20 09:52:43;;;;;;;5.50;1.55;;;22.50;62.60;;;;;;5004852;28;20041;-79
2022/06/20 09:55:21;;;;;;;5.65;1.80;;;22.10;60.60;;;;;;5027162;28;20495;-80
2022/06/20 09:57:56;;;;;;;6.28;1.90;;;21.30;64.80;;;;;;5021377;28;20541;-80
2022/06/20 10:00:31;;;;;;;9.15;2.10;;;21.20;68.10;;;;;;5018108;28;20037;-80
2022/06/20 10:03:15;;;;;;;6.50;1.67;;;21.00;68.40;;;;;;5012427;28;20399;-80
2022/06/20 10:05:57;;;;;;;8.13;1.95;;;20.80;67.70;;;;;;5033713;28;20522;-79
2022/06/20 10:08:55;;;;;;;5.90;1.80;;;20.60;67.20;;;;;;5025458;28;20072;-79
2022/06/20 10:11:30;;;;;;;4.88;1.55;;;20.50;70.00;;;;;;5039448;28;20052;-78
2022/06/20 10:14:03;;;;;;;7.07;1.75;;;20.20;68.40;;;;;;5029124;28;20072;-79
2022/06/20 10:17:00;;;;;;;8.30;2.00;;;19.80;70.00;;;;;;5044183;28;20129;-80
2022/06/20 10:19:36;;;;;;;7.05;2.00;;;19.70;70.20;;;;;;5014737;28;20103;-79
2022/06/20 10:22:11;;;;;;;7.20;2.05;;;19.70;73.60;;;;;;5008482;28;20454;-80
2022/06/20 10:25:16;;;;;;;5.45;1.85;;;20.20;75.20;;;;;;5011427;28;20124;-80
2022/06/20 10:28:00;;;;;;;6.30;1.80;;;20.80;73.50;;;;;;5033356;28;20056;-80
2022/06/20 10:30:59;;;;;;;7.88;2.00;;;21.20;69.00;;;;;;5025835;28;20059;-80
2022/06/20 10:33:37;;;;;;;6.80;1.58;;;21.20;65.50;;;;;;5031422;28;20491;-80
2022/06/20 10:36:39;;;;;;;6.05;1.70;;;20.60;64.90;;;;;;5027563;28;20040;-80
2022/06/20 10:39:29;;;;;;;6.15;1.60;;;20.50;66.40;;;;;;5032590;28;20083;-80
2022/06/20 10:42:14;;;;;;;8.40;2.13;;;19.90;66.10;;;;;;5030439;28;20049;-80
2022/06/20 10:44:42;;;;;;;6.18;1.80;;;19.60;67.60;;;;;;5031501;28;20086;-80
2022/06/20 10:47:59;;;;;;;8.02;1.73;;;19.20;70.10;;;;;;5015220;28;20500;-80
2022/06/20 10:50:57;;;;;;;7.57;1.70;;;19.10;72.80;;;;;;4993934;28;20567;-79
2022/06/20 10:53:46;;;;;;;6.38;1.80;;;18.90;74.00;;;;;;5028135;28;20072;-79
2022/06/20 10:56:33;;;;;;;10.02;1.95;;;18.80;76.40;;;;;;5010117;28;20043;-79
2022/06/20 10:59:05;;;;;;;5.25;1.70;;;18.60;77.50;;;;;;5011875;28;20116;-80
2022/06/20 11:01:30;;;;;;;;;;;18.50;79.10;;;;;;5014562;28;20040;-80
2022/06/20 11:04:14;;;;;;;9.05;2.10;;;18.70;80.70;;;;;;5015675;28;20286;-81
2022/06/20 11:07:01;;;;;;;8.25;2.13;;;18.90;82.80;;;;;;5026448;28;20041;-79
2022/06/20 11:10:13;;;;;;;8.50;2.00;;;19.50;83.30;;;;;;5027627;28;20048;-79
2022/06/20 11:13:06;;;;;;;6.60;1.60;;;19.70;76.10;;;;;;5031045;28;20391;-80
2022/06/20 11:15:50;;;;;;;7.30;1.50;;;20.30;75.90;;;;;;5028696;28;20116;-82
2022/06/20 11:18:30;;;;;;;4.40;1.23;;;20.80;71.00;;;;;;5028412;28;20033;-86
2022/06/20 11:21:05;;;;;;;4.85;1.30;;;21.10;64.80;;;;;;5012748;28;20041;-81
2022/06/20 11:23:58;;;;;;;5.30;1.35;;;21.20;62.20;;;;;;5028658;28;20095;-81
2022/06/20 11:26:31;;;;;;;6.03;1.60;;;21.10;61.90;;;;;;5029079;28;20147;-81
2022/06/20 11:29:23;;;;;;;6.47;1.50;;;21.20;63.90;;;;;;5019229;28;20046;-83
2022/06/20 11:32:28;;;;;;;6.28;1.52;;;21.00;63.30;;;;;;5028484;28;20055;-81
2022/06/20 11:35:26;;;;;;;7.13;1.70;;;20.90;66.10;;;;;;5024700;28;20051;-81
2022/06/20 11:38:22;;;;;;;5.55;1.52;;;20.60;65.20;;;;;;5037550;28;20038;-81
2022/06/20 11:41:00;;;;;;;7.90;1.58;;;20.40;65.30;;;;;;5027854;28;20041;-81
2022/06/20 11:43:29;;;;;;;7.68;1.60;;;20.50;69.10;;;;;;5027363;28;20046;-81
2022/06/20 11:46:13;;;;;;;8.77;1.77;;;20.80;66.40;;;;;;5008424;28;20111;-82
2022/06/20 11:49:09;;;;;;;9.18;1.63;;;20.80;66.40;;;;;;5026123;28;20033;-81
2022/06/20 11:51:55;;;;;;;6.28;1.60;;;21.00;66.70;;;;;;5023826;28;20100;-81
2022/06/20 11:55:00;;;;;;;7.10;1.88;;;20.80;64.80;;;;;;5008443;28;20029;-81
2022/06/20 11:57:34;;;;;;;6.80;1.92;;;20.30;67.00;;;;;;5021600;28;20091;-81
2022/06/20 12:00:01;;;;;;;6.60;1.90;;;20.00;69.50;;;;;;5027296;28;20041;-81
2022/06/20 12:02:39;;;;;;;7.35;1.90;;;19.80;71.10;;;;;;5027993;28;20049;-81
2022/06/20 12:05:17;;;;;;;7.15;1.90;;;20.00;71.80;;;;;;5040993;28;20115;-82
2022/06/20 12:07:49;;;;;;;10.63;2.15;;;20.30;71.10;;;;;;5028868;28;20049;-82
2022/06/20 12:10:26;;;;;;;11.40;1.95;;;20.50;68.00;;;;;;5026382;28;20132;-81
2022/06/20 12:13:23;;;;;;;8.10;1.80;;;20.40;69.60;;;;;;5025304;28;20038;-82
2022/06/20 12:16:01;;;;;;;7.18;1.88;;;20.40;68.90;;;;;;4980468;28;20041;-81
2022/06/20 12:23:18;;;;;;;5.10;1.55;;;20.80;70.70;;;;;;5019213;28;20042;-81
2022/06/20 12:24:16;;;;;;;7.28;1.80;;;21.20;66.90;;;;;;5054873;28;20127;-80
2022/06/20 12:26:42;;;;;;;5.32;1.75;;;20.90;63.80;;;;;;5006138;28;20106;-79
2022/06/20 12:29:17;;;;;;;7.45;1.75;;;20.60;64.20;;;;;;5034684;28;20077;-78
2022/06/20 12:31:48;;;;;;;8.00;1.80;;;20.80;65.40;;;;;;5018198;28;20065;-80
2022/06/20 12:34:16;;;;;;;7.43;1.97;;;20.90;61.40;;;;;;5029185;28;20044;-77
2022/06/20 12:37:00;;;;;;;7.15;1.83;;;20.50;63.00;;;;;;5041358;28;20042;-78
2022/06/20 12:39:37;;;;;;;7.07;1.90;;;20.50;65.10;;;;;;5028789;28;20029;-81
2022/06/20 12:42:31;;;;;;;8.07;1.90;;;20.40;66.30;;;;;;5067474;28;20033;-81
2022/06/20 12:45:12;;;;;;;9.27;2.30;;;20.60;68.00;;;;;;5050012;28;20038;-81
2022/06/20 12:48:25;;;;;;;8.75;2.13;;;20.90;69.70;;;;;;5033751;28;20022;-78
2022/06/20 12:51:12;;;;;;;9.15;2.00;;;21.20;68.90;;;;;;5041415;28;20034;-82
2022/06/20 12:54:13;;;;;;;8.73;2.20;;;21.30;67.90;;;;;;5058212;28;20053;-81
2022/06/20 12:57:02;;;;;;;7.25;1.98;;;21.30;67.60;;;;;;5049266;28;20057;-81
2022/06/20 12:59:53;;;;;;;6.93;2.08;;;21.40;68.50;;;;;;5064150;28;20045;-79
2022/06/20 13:03:00;;;;;;;5.47;1.83;;;21.70;65.80;;;;;;5050640;28;20038;-81
2022/06/20 13:05:49;;;;;;;7.55;1.90;;;21.90;65.00;;;;;;4958671;29;20051;-81
2022/06/20 13:08:30;;;;;;;7.43;1.73;;;21.90;61.60;;;;;;5050165;28;20049;-80
2022/06/20 13:11:17;;;;;;;7.00;1.80;;;21.60;63.20;;;;;;5054163;28;20052;-80
2022/06/20 13:13:54;;;;;;;5.70;1.80;;;21.50;63.30;;;;;;5058250;28;20029;-80
2022/06/20 13:16:45;;;;;;;7.13;1.75;;;21.60;64.10;;;;;;5036766;28;20028;-81
2022/06/20 13:19:17;;;;;;;4.60;1.60;;;21.60;63.30;;;;;;5037018;28;20033;-80
2022/06/20 13:22:12;;;;;;;6.35;1.75;;;21.20;61.90;;;;;;5036044;28;20026;-80
2022/06/20 13:25:01;;;;;;;6.50;1.75;;;20.50;60.30;;;;;;5051023;28;20071;-80
2022/06/20 13:27:54;;;;;;;6.03;1.50;;;20.10;62.00;;;;;;5043739;28;20054;-80
2022/06/20 13:30:38;;;;;;;5.22;1.60;;;20.20;63.00;;;;;;5026921;28;20049;-80
2022/06/20 13:33:17;;;;;;;5.97;1.63;;;20.50;63.80;;;;;;5029332;28;20476;-80
2022/06/20 13:35:51;;;;;;;7.85;1.60;;;21.10;62.90;;;;;;5025136;28;20476;-81
2022/06/20 13:38:37;;;;;;;5.90;1.60;;;21.40;61.80;;;;;;5007226;28;21058;-81
2022/06/20 13:41:22;;;;;;;6.30;1.60;;;21.50;62.00;;;;;;5043463;28;20404;-81
2022/06/20 13:44:16;;;;;;;5.25;1.63;;;21.70;62.00;;;;;;5007001;28;20053;-80
2022/06/20 13:47:10;;;;;;;6.22;1.45;;;21.70;61.40;;;;;;5013987;28;20121;-81
2022/06/20 13:50:04;;;;;;;6.00;1.80;;;21.70;61.50;;;;;;5008242;28;20100;-81
2022/06/20 13:52:49;;;;;;;5.18;1.60;;;21.60;62.10;;;;;;5034068;28;20121;-80
2022/06/20 13:55:25;;;;;;;5.88;1.80;;;21.40;61.30;;;;;;5018717;28;20048;-81
2022/06/20 13:58:14;;;;;;;5.72;1.77;;;21.30;63.20;;;;;;5026451;28;20041;-81
2022/06/20 14:00:42;;;;;;;5.18;1.52;;;21.20;63.40;;;;;;5023942;28;20049;-80